createdAt,value
2022-08-22T00:02:47.158Z,21.21
2022-08-22T00:03:44.280Z,20.19
2022-08-22T00:08:55.549Z,20.07
2022-08-22T00:14:07.448Z,19.96
2022-08-22T00:19:24.419Z,19.93
2022-08-22T00:25:24.754Z,19.82
2022-08-22T00:30:30.214Z,19.83
2022-08-22T00:35:34.774Z,19.63
2022-08-22T00:40:53.308Z,19.68
2022-08-22T00:46:22.212Z,19.51
2022-08-22T00:51:35.613Z,19.65
2022-08-22T00:57:03.256Z,19.66
2022-08-22T01:02:11.159Z,19.55
2022-08-22T01:07:38.226Z,19.52
2022-08-22T01:12:52.384Z,19.25
2022-08-22T01:18:28.616Z,19.15
2022-08-22T01:23:48.674Z,19.18
2022-08-22T01:28:50.108Z,19.00
2022-08-22T01:34:13.708Z,19.19
2022-08-22T01:39:56.633Z,19.11
2022-08-22T01:45:01.025Z,19.06
2022-08-22T01:50:12.921Z,19.07
2022-08-22T01:55:24.416Z,18.94
2022-08-22T02:00:34.609Z,18.89
2022-08-22T02:05:51.372Z,18.88
2022-08-22T02:10:58.844Z,18.75
2022-08-22T02:16:08.833Z,18.73
2022-08-22T02:21:23.822Z,18.81
2022-08-22T02:26:25.485Z,18.75
2022-08-22T02:32:02.484Z,18.80
2022-08-22T02:37:14.991Z,18.84
2022-08-22T02:42:40.017Z,18.71
2022-08-22T02:47:56.796Z,18.71
2022-08-22T02:53:02.381Z,18.77
2022-08-22T02:58:29.074Z,18.71
2022-08-22T03:03:39.885Z,18.74
2022-08-22T03:09:05.765Z,18.71
2022-08-22T03:14:28.893Z,18.62
2022-08-22T03:19:44.053Z,18.72
2022-08-22T03:25:04.906Z,18.48
2022-08-22T03:30:10.616Z,18.53
2022-08-22T03:35:25.439Z,18.65
2022-08-22T03:40:57.534Z,18.74
2022-08-22T03:46:34.584Z,18.65
2022-08-22T03:51:59.068Z,18.67
2022-08-22T03:57:25.345Z,18.58
2022-08-22T04:02:51.488Z,18.58
2022-08-22T04:08:29.632Z,18.45
2022-08-22T04:13:53.906Z,18.55
2022-08-22T04:19:26.005Z,18.36
2022-08-22T04:24:52.163Z,18.20
2022-08-22T04:30:34.429Z,18.28
2022-08-22T04:35:42.900Z,18.19
2022-08-22T04:40:52.558Z,18.16
2022-08-22T04:46:23.301Z,18.08
2022-08-22T04:51:57.437Z,18.09
2022-08-22T04:57:17.755Z,18.11
2022-08-22T05:02:27.599Z,18.14
2022-08-22T05:07:35.870Z,18.32
2022-08-22T05:12:40.701Z,18.29
2022-08-22T05:17:44.801Z,18.30
2022-08-22T05:22:51.187Z,18.30
2022-08-22T05:28:02.318Z,18.30
2022-08-22T05:33:29.724Z,18.55
2022-08-22T05:38:34.557Z,18.58
2022-08-22T05:43:43.202Z,18.85
2022-08-22T05:48:53.328Z,19.01
2022-08-22T05:54:11.332Z,19.34
2022-08-22T05:59:32.899Z,19.37
2022-08-22T06:04:40.472Z,19.52
2022-08-22T06:09:47.836Z,19.51
2022-08-22T06:15:13.893Z,19.67
2022-08-22T06:20:20.825Z,19.88
2022-08-22T06:25:27.622Z,19.92
2022-08-22T06:30:30.055Z,19.92
2022-08-22T06:35:59.397Z,20.12
2022-08-22T06:41:06.062Z,20.30
2022-08-22T06:46:08.886Z,20.53
2022-08-22T06:51:12.550Z,20.50
2022-08-22T06:56:20.999Z,20.80
2022-08-22T07:01:31.128Z,20.95
2022-08-22T07:06:47.240Z,21.18
2022-08-22T07:11:48.944Z,21.20
2022-08-22T07:17:01.064Z,21.15
2022-08-22T07:22:15.601Z,21.30
2022-08-22T07:27:19.860Z,21.36
2022-08-22T07:32:30.081Z,21.58
2022-08-22T07:38:08.018Z,21.72
2022-08-22T07:43:25.181Z,21.70
2022-08-22T07:48:33.476Z,21.81
2022-08-22T07:53:45.873Z,22.01
2022-08-22T07:58:52.580Z,21.99
2022-08-22T08:03:58.921Z,22.11
2022-08-22T08:09:01.633Z,22.33
2022-08-22T08:14:07.056Z,22.50
2022-08-22T08:19:10.765Z,22.69
2022-08-22T08:24:19.505Z,22.77
2022-08-22T08:29:21.713Z,22.93
2022-08-22T08:34:26.642Z,22.83
2022-08-22T08:39:43.360Z,22.86
2022-08-22T08:45:11.090Z,22.94
2022-08-22T08:50:40.433Z,23.13
2022-08-22T08:56:14.649Z,23.22
2022-08-22T09:01:59.203Z,23.21
2022-08-22T09:07:42.181Z,23.43
2022-08-22T09:13:21.321Z,23.59
2022-08-22T09:18:41.524Z,23.71
2022-08-22T09:24:05.210Z,23.72
2022-08-22T09:29:34.705Z,23.89
2022-08-22T09:35:27.190Z,23.88
2022-08-22T09:40:39.926Z,23.92
2022-08-22T09:46:01.921Z,24.08
2022-08-22T09:51:31.647Z,24.47
2022-08-22T09:56:58.243Z,24.39
2022-08-22T10:02:16.749Z,24.41
2022-08-22T10:07:29.100Z,24.56
2022-08-22T10:12:37.629Z,24.59
2022-08-22T10:17:56.780Z,24.75
2022-08-22T10:23:01.221Z,24.88
2022-08-22T10:28:14.918Z,25.25
2022-08-22T10:33:29.189Z,25.28
2022-08-22T10:38:46.441Z,25.37
2022-08-22T10:44:36.774Z,25.38
2022-08-22T10:49:52.017Z,25.56
2022-08-22T10:55:09.960Z,25.76
2022-08-22T11:00:37.227Z,26.06
2022-08-22T11:05:51.030Z,25.75
2022-08-22T11:11:22.657Z,26.00
2022-08-22T11:16:31.004Z,26.07
2022-08-22T11:21:58.821Z,26.20
2022-08-22T11:27:14.946Z,26.18
2022-08-22T11:32:40.561Z,26.10
2022-08-22T11:37:58.505Z,26.33
2022-08-22T11:43:18.618Z,26.53
2022-08-22T11:48:23.821Z,26.43
2022-08-22T11:53:42.033Z,26.59
2022-08-22T11:58:58.873Z,26.72
2022-08-22T12:04:06.397Z,26.82
2022-08-22T12:09:25.497Z,26.88
2022-08-22T12:14:36.751Z,27.11
2022-08-22T12:20:15.107Z,27.09
2022-08-22T12:25:38.465Z,27.13
2022-08-22T12:31:02.900Z,27.04
2022-08-22T12:36:20.393Z,27.41
2022-08-22T12:41:37.527Z,27.36
2022-08-22T12:47:17.325Z,27.57
2022-08-22T12:52:36.539Z,27.36
2022-08-22T12:58:02.575Z,27.25
2022-08-22T13:03:29.760Z,27.06
2022-08-22T13:08:38.508Z,27.22
2022-08-22T13:13:56.060Z,27.43
2022-08-22T13:19:07.537Z,27.56
2022-08-22T13:24:16.840Z,27.54
2022-08-22T13:29:39.659Z,27.46
2022-08-22T13:34:56.445Z,27.51
2022-08-22T13:40:02.279Z,27.55
2022-08-22T13:45:12.534Z,27.42
2022-08-22T13:50:19.783Z,27.41
2022-08-22T13:55:27.613Z,27.80
2022-08-22T14:01:05.176Z,28.06
2022-08-22T14:06:37.016Z,27.99
2022-08-22T14:11:45.956Z,28.13
2022-08-22T14:16:51.069Z,28.38
2022-08-22T14:21:59.590Z,28.61
2022-08-22T14:27:09.312Z,28.65
2022-08-22T14:32:23.298Z,28.89
2022-08-22T14:37:33.567Z,28.93
2022-08-22T14:42:49.405Z,29.00
2022-08-22T14:48:30.419Z,28.84
2022-08-22T14:53:35.825Z,29.21
2022-08-22T14:58:53.720Z,28.95
2022-08-22T15:04:18.913Z,28.56
2022-08-22T15:09:48.542Z,28.42
2022-08-22T15:14:53.339Z,28.25
2022-08-22T15:20:27.865Z,28.13
2022-08-22T15:25:41.124Z,28.28
2022-08-22T15:30:49.372Z,28.38
2022-08-22T15:36:15.853Z,28.49
2022-08-22T15:41:36.718Z,28.38
2022-08-22T15:46:57.963Z,28.13
2022-08-22T15:51:59.421Z,28.20
2022-08-22T15:57:16.174Z,27.97
2022-08-22T16:02:28.817Z,27.94
2022-08-22T16:07:41.062Z,27.85
2022-08-22T16:13:06.884Z,27.89
2022-08-22T16:18:33.836Z,27.81
2022-08-22T16:23:50.896Z,27.81
2022-08-22T16:29:13.668Z,27.65
2022-08-22T16:34:24.484Z,27.76
2022-08-22T16:39:58.635Z,27.66
2022-08-22T16:45:05.955Z,27.75
2022-08-22T16:50:16.496Z,27.84
2022-08-22T16:55:30.250Z,27.75
2022-08-22T17:00:43.419Z,27.76
2022-08-22T17:06:12.585Z,27.82
2022-08-22T17:11:32.302Z,27.63
2022-08-22T17:17:15.588Z,27.52
2022-08-22T17:22:32.260Z,27.50
2022-08-22T17:27:39.736Z,27.42
2022-08-22T17:32:44.332Z,27.41
2022-08-22T17:37:59.899Z,27.35
2022-08-22T17:43:26.784Z,27.24
2022-08-22T17:48:31.627Z,27.25
2022-08-22T17:53:50.302Z,27.24
2022-08-22T17:59:02.886Z,27.10
2022-08-22T18:04:10.856Z,27.04
2022-08-22T18:09:27.952Z,27.00
2022-08-22T18:14:38.183Z,26.89
2022-08-22T18:19:51.934Z,26.68
2022-08-22T18:25:11.078Z,26.63
2022-08-22T18:30:30.826Z,26.38
2022-08-22T18:35:53.955Z,26.35
2022-08-22T18:41:10.381Z,26.22
2022-08-22T18:46:37.711Z,26.09
2022-08-22T18:51:41.467Z,26.06
2022-08-22T18:57:07.268Z,25.95
2022-08-22T19:02:20.796Z,25.85
2022-08-22T19:07:35.378Z,25.70
2022-08-22T19:12:49.586Z,25.69
2022-08-22T19:18:15.103Z,25.66
2022-08-22T19:23:31.708Z,25.66
2022-08-22T19:28:37.341Z,25.58
2022-08-22T19:33:41.524Z,25.54
2022-08-22T19:39:09.035Z,25.45
2022-08-22T19:44:36.307Z,25.41
2022-08-22T19:49:43.654Z,25.37
2022-08-22T19:55:14.401Z,25.36
2022-08-22T20:00:20.865Z,25.28
2022-08-22T20:05:43.587Z,25.42
2022-08-22T20:11:28.129Z,25.22
2022-08-22T20:16:58.100Z,25.20
2022-08-22T20:22:03.801Z,25.12
2022-08-22T20:27:15.153Z,25.12
2022-08-22T20:32:21.152Z,25.06
2022-08-22T20:37:40.402Z,24.96
2022-08-22T20:42:53.717Z,24.93
2022-08-22T20:47:55.715Z,24.77
2022-08-22T20:53:17.471Z,24.71
2022-08-22T20:58:22.660Z,24.60
2022-08-22T21:03:36.218Z,24.53
2022-08-22T21:08:37.985Z,24.49
2022-08-22T21:13:39.492Z,24.53
2022-08-22T21:18:50.571Z,24.38
2022-08-22T21:24:01.025Z,24.23
2022-08-22T21:29:21.086Z,24.04
2022-08-22T21:34:34.332Z,24.31
2022-08-22T21:39:43.663Z,23.92
2022-08-22T21:44:57.225Z,23.93
2022-08-22T21:50:14.335Z,23.65
2022-08-22T21:55:23.837Z,23.62
2022-08-22T22:00:50.536Z,23.61
2022-08-22T22:05:56.226Z,23.42
2022-08-22T22:11:01.148Z,23.26
2022-08-22T22:16:03.767Z,23.28
2022-08-22T22:21:05.361Z,23.35
2022-08-22T22:26:06.922Z,23.08
2022-08-22T22:31:09.610Z,22.98
2022-08-22T22:36:17.773Z,23.13
2022-08-22T22:41:23.304Z,23.02
2022-08-22T22:46:27.007Z,22.98
2022-08-22T22:51:28.514Z,23.06
2022-08-22T22:56:30.055Z,22.99
2022-08-22T23:01:32.201Z,22.90
2022-08-22T23:06:34.556Z,23.11
2022-08-22T23:11:36.195Z,22.81
2022-08-22T23:16:40.203Z,22.80
2022-08-22T23:21:42.980Z,22.63
2022-08-22T23:26:44.687Z,22.51
2022-08-22T23:31:51.106Z,22.39
2022-08-22T23:36:54.745Z,22.29
2022-08-22T23:41:57.153Z,22.27
2022-08-22T23:47:00.217Z,22.29
2022-08-22T23:52:02.599Z,22.17
2022-08-22T23:57:11.904Z,22.20
